EGPE/INV METAR and TAF weather

Enter ICAO airport designator
Station Type Date Time Source
EGPE METAR 2019/06/18 16:20 UTC NOAA

EGPE 181620Z 21019KT 9999 FEW020 SCT032 BKN048 15/09 Q1007


Station Type Date Time Source
EGPE Decoded METAR 2019/06/18 16:20 UTC NOAA

Inverness / Dalcross, United Kingdom (EGPE) 57-32N 004-03W 0M
Jun 18, 2019 - 12:20 PM EDT / 2019.06.18 1620 UTC
Wind: from the SSW (210 degrees) at 22 MPH (19 KT):0
Visibility: greater than 7 mile(s):0
Sky conditions: mostly cloudy
Temperature: 59 F (15 C)
Dew Point: 48 F (9 C)
Relative Humidity: 67%
Pressure (altimeter): 29.74 in. Hg (1007 hPa)
ob: EGPE 181620Z 21019KT 9999 FEW020 SCT032 BKN048 15/09 Q1007
cycle: 16

Station Type Date Time Source
EGPE TAF UTC NOAA

Error!

Example: see airport list